createdAt,value
2022-09-07T00:01:10.582Z,45.70
2022-09-07T00:03:37.413Z,45.50
2022-09-07T00:06:12.375Z,46.30
2022-09-07T00:08:40.616Z,46.50
2022-09-07T00:11:10.931Z,45.90
2022-09-07T00:13:39.027Z,45.40
2022-09-07T00:16:08.151Z,45.30
2022-09-07T00:18:35.430Z,45.40
2022-09-07T00:21:05.287Z,45.30
2022-09-07T00:23:32.939Z,45.00
2022-09-07T00:26:05.347Z,45.20
2022-09-07T00:28:32.522Z,45.20
2022-09-07T00:30:59.507Z,45.40
2022-09-07T00:33:26.412Z,46.30
2022-09-07T00:35:53.251Z,46.20
2022-09-07T00:38:20.523Z,46.80
2022-09-07T00:40:47.257Z,48.60
2022-09-07T00:43:36.588Z,49.20
2022-09-07T00:46:06.071Z,50.60
2022-09-07T00:48:38.467Z,52.10
2022-09-07T00:51:09.173Z,53.60
2022-09-07T00:54:00.242Z,54.70
2022-09-07T00:56:31.615Z,56.70
2022-09-07T00:58:59.152Z,56.80
2022-09-07T01:01:27.050Z,58.10
2022-09-07T01:03:58.483Z,58.30
2022-09-07T01:06:29.528Z,58.50
2022-09-07T01:09:00.165Z,58.90
2022-09-07T01:11:27.000Z,58.30
2022-09-07T01:13:54.766Z,58.30
2022-09-07T01:16:21.430Z,59.30
2022-09-07T01:18:59.179Z,59.20
2022-09-07T01:22:13.286Z,59.20
2022-09-07T01:25:02.938Z,59.10
2022-09-07T01:27:47.699Z,58.80
2022-09-07T01:30:23.271Z,58.10
2022-09-07T01:33:02.736Z,56.90
2022-09-07T01:36:00.783Z,55.90
2022-09-07T01:38:31.776Z,55.60
2022-09-07T01:41:07.367Z,56.60
2022-09-07T01:43:34.001Z,57.10
2022-09-07T01:46:05.415Z,56.20
2022-09-07T01:48:35.478Z,55.30
2022-09-07T01:51:04.256Z,54.90
2022-09-07T01:53:47.540Z,55.40
2022-09-07T01:56:20.566Z,54.80
2022-09-07T01:58:53.552Z,54.80
2022-09-07T02:01:36.401Z,54.50
2022-09-07T02:04:20.596Z,53.70
2022-09-07T02:06:55.990Z,54.90
2022-09-07T02:09:31.581Z,53.50
2022-09-07T02:12:03.372Z,54.30
2022-09-07T02:14:38.193Z,54.30
2022-09-07T02:17:08.985Z,53.60
2022-09-07T02:19:42.500Z,53.80
2022-09-07T02:22:16.092Z,54.60
2022-09-07T02:24:47.520Z,54.50
2022-09-07T02:27:18.706Z,54.60
2022-09-07T02:29:45.474Z,54.20
2022-09-07T02:32:12.400Z,54.60
2022-09-07T02:34:39.181Z,54.20
2022-09-07T02:37:08.947Z,54.30
2022-09-07T02:39:35.848Z,55.80
2022-09-07T02:42:02.882Z,55.40
2022-09-07T02:44:34.935Z,55.50
2022-09-07T02:47:09.887Z,56.40
2022-09-07T02:50:07.638Z,58.10
2022-09-07T02:53:08.550Z,56.80
2022-09-07T02:55:37.992Z,57.00
2022-09-07T02:58:50.320Z,57.20
2022-09-07T03:01:29.232Z,58.00
2022-09-07T03:04:37.234Z,59.70
2022-09-07T03:07:20.613Z,58.10
2022-09-07T03:09:50.721Z,57.60
2022-09-07T03:12:17.600Z,56.30
2022-09-07T03:14:45.250Z,56.40
2022-09-07T03:17:13.143Z,56.00
2022-09-07T03:19:39.929Z,55.50
2022-09-07T03:22:07.054Z,55.30
2022-09-07T03:24:33.848Z,55.40
2022-09-07T03:27:00.670Z,55.30
2022-09-07T03:29:27.468Z,56.00
2022-09-07T03:31:54.175Z,55.30
2022-09-07T03:34:20.896Z,57.40
2022-09-07T03:36:47.586Z,56.80
2022-09-07T03:39:14.349Z,56.30
2022-09-07T03:41:41.213Z,58.70
2022-09-07T03:44:08.599Z,57.20
2022-09-07T03:46:35.476Z,58.00
2022-09-07T03:49:03.748Z,57.90
2022-09-07T03:51:31.037Z,57.60
2022-09-07T03:53:57.891Z,58.00
2022-09-07T03:56:25.291Z,57.90
2022-09-07T03:58:54.058Z,56.80
2022-09-07T04:01:23.108Z,56.50
2022-09-07T04:03:50.640Z,56.10
2022-09-07T04:06:18.525Z,55.10
2022-09-07T04:08:45.992Z,55.00
2022-09-07T04:11:15.275Z,55.00
2022-09-07T04:13:42.693Z,56.20
2022-09-07T04:16:19.632Z,55.30
2022-09-07T04:18:47.240Z,55.30
2022-09-07T04:21:14.166Z,54.70
2022-09-07T04:23:42.554Z,57.40
2022-09-07T04:26:18.228Z,57.30
2022-09-07T04:28:45.797Z,57.10
2022-09-07T04:31:13.735Z,56.20
2022-09-07T04:33:40.590Z,56.00
2022-09-07T04:36:07.735Z,55.80
2022-09-07T04:38:34.813Z,54.90
2022-09-07T04:41:08.251Z,55.10
2022-09-07T04:43:38.929Z,54.90
2022-09-07T04:46:20.066Z,54.80
2022-09-07T04:49:08.238Z,54.60
2022-09-07T04:51:36.175Z,54.60
2022-09-07T04:54:04.148Z,54.60
2022-09-07T04:56:32.248Z,54.80
2022-09-07T04:59:05.921Z,54.60
2022-09-07T05:01:32.930Z,55.20
2022-09-07T05:04:02.948Z,55.80
2022-09-07T05:06:30.135Z,57.70
2022-09-07T05:08:58.647Z,57.90
2022-09-07T05:11:29.043Z,58.40
2022-09-07T05:14:00.887Z,57.50
2022-09-07T05:16:29.409Z,58.10
2022-09-07T05:18:58.966Z,59.70
2022-09-07T05:21:28.518Z,58.30
2022-09-07T05:23:56.814Z,57.80
2022-09-07T05:26:25.731Z,58.20
2022-09-07T05:28:52.699Z,59.40
2022-09-07T05:31:22.002Z,58.40
2022-09-07T05:36:38.001Z,58.70
2022-09-07T05:39:06.203Z,57.60
2022-09-07T05:41:32.987Z,57.20
2022-09-07T05:46:46.993Z,56.60
2022-09-07T05:49:13.689Z,57.00
2022-09-07T05:51:41.074Z,57.20
2022-09-07T05:54:07.772Z,57.60
2022-09-07T05:56:36.166Z,57.90
2022-09-07T05:59:03.245Z,57.30
2022-09-07T06:01:29.979Z,56.70
2022-09-07T06:03:56.736Z,57.30
2022-09-07T06:06:23.834Z,57.40
2022-09-07T06:08:52.401Z,57.60
2022-09-07T06:11:22.255Z,58.50
2022-09-07T06:13:49.599Z,59.50
2022-09-07T06:16:18.351Z,58.10
2022-09-07T06:18:47.155Z,57.80
2022-09-07T06:21:19.531Z,57.30
2022-09-07T06:23:47.278Z,57.60
2022-09-07T06:26:16.274Z,58.50
2022-09-07T06:28:48.822Z,58.80
2022-09-07T06:31:18.865Z,57.60
2022-09-07T06:33:47.468Z,57.40
2022-09-07T06:36:27.822Z,56.60
2022-09-07T06:38:56.292Z,56.20
2022-09-07T06:44:12.513Z,58.00
2022-09-07T06:49:26.540Z,57.90
2022-09-07T06:51:53.323Z,57.40
2022-09-07T06:57:09.310Z,57.10
2022-09-07T06:59:37.298Z,57.70
2022-09-07T07:02:05.353Z,57.40
2022-09-07T07:04:37.674Z,57.50
2022-09-07T07:07:10.780Z,58.00
2022-09-07T07:09:38.161Z,58.50
2022-09-07T07:12:04.978Z,60.90
2022-09-07T07:14:34.401Z,59.40
2022-09-07T07:17:02.948Z,60.30
2022-09-07T07:19:29.719Z,63.10
2022-09-07T07:24:43.045Z,65.00
2022-09-07T07:27:09.742Z,64.70
2022-09-07T07:29:36.424Z,64.80
2022-09-07T07:32:04.191Z,63.20
2022-09-07T07:34:31.057Z,65.40
2022-09-07T07:36:57.773Z,63.90
2022-09-07T07:42:12.290Z,62.60
2022-09-07T07:44:38.978Z,62.00
2022-09-07T07:47:05.889Z,60.90
2022-09-07T07:49:33.028Z,60.10
2022-09-07T07:54:46.722Z,63.10
2022-09-07T07:57:13.885Z,62.20
2022-09-07T07:59:40.609Z,62.30
2022-09-07T08:02:12.355Z,64.40
2022-09-07T08:04:39.084Z,63.90
2022-09-07T08:07:10.784Z,62.70
2022-09-07T08:09:42.788Z,61.30
2022-09-07T08:12:12.089Z,61.80
2022-09-07T08:14:42.607Z,61.90
2022-09-07T08:17:14.519Z,63.80
2022-09-07T08:19:41.818Z,63.50
2022-09-07T08:22:10.571Z,61.80
2022-09-07T08:24:37.414Z,60.30
2022-09-07T08:27:04.242Z,61.70
2022-09-07T08:29:34.509Z,63.00
2022-09-07T08:32:03.537Z,64.40
2022-09-07T08:34:30.181Z,64.40
2022-09-07T08:36:56.778Z,63.20
2022-09-07T08:39:23.420Z,62.20
2022-09-07T08:42:05.243Z,62.50
2022-09-07T08:44:35.049Z,62.30
2022-09-07T08:47:05.589Z,61.70
2022-09-07T08:49:44.933Z,61.80
2022-09-07T08:52:16.800Z,62.40
2022-09-07T08:54:58.772Z,63.40
2022-09-07T08:57:30.966Z,62.50
2022-09-07T09:00:08.666Z,62.10
2022-09-07T09:02:42.476Z,61.40
2022-09-07T09:05:31.372Z,61.50
2022-09-07T09:08:22.901Z,61.30
2022-09-07T09:11:03.447Z,60.40
2022-09-07T09:13:33.469Z,60.00
2022-09-07T09:16:35.373Z,60.00
2022-09-07T09:19:15.815Z,60.30
2022-09-07T09:21:43.339Z,59.90
2022-09-07T09:24:19.087Z,59.70
2022-09-07T09:29:23.532Z,59.30
2022-09-07T09:31:50.147Z,59.20
2022-09-07T09:34:23.889Z,58.80
2022-09-07T09:36:54.703Z,58.70
2022-09-07T09:39:28.960Z,58.40
2022-09-07T09:41:58.380Z,58.20
2022-09-07T09:44:31.094Z,58.10
2022-09-07T09:49:45.546Z,56.70
2022-09-07T09:52:41.848Z,56.50
2022-09-07T09:55:30.586Z,56.30
2022-09-07T10:04:00.494Z,55.40
2022-09-07T10:06:29.268Z,55.50
2022-09-07T10:09:03.397Z,55.60
2022-09-07T10:12:09.815Z,55.30
2022-09-07T10:14:41.715Z,54.60
2022-09-07T10:17:33.117Z,54.60
2022-09-07T10:20:22.517Z,54.60
2022-09-07T10:22:51.935Z,54.10
2022-09-07T10:25:39.485Z,54.20
2022-09-07T10:28:15.449Z,53.90
2022-09-07T10:31:15.689Z,53.60
2022-09-07T10:36:58.836Z,53.40
2022-09-07T10:39:30.278Z,53.00
2022-09-07T10:42:07.110Z,52.60
2022-09-07T10:44:48.296Z,52.30
2022-09-07T10:47:52.734Z,52.00
2022-09-07T10:50:37.306Z,51.50
2022-09-07T10:53:43.506Z,50.80
2022-09-07T10:56:25.713Z,50.50
2022-09-07T10:59:20.053Z,50.20
2022-09-07T11:02:08.956Z,49.40
2022-09-07T11:05:01.853Z,49.70
2022-09-07T11:07:31.181Z,49.40
2022-09-07T11:10:38.941Z,49.30
2022-09-07T11:13:10.537Z,49.10
2022-09-07T11:16:08.366Z,49.50
2022-09-07T11:18:52.944Z,49.20
2022-09-07T11:24:44.835Z,49.30
2022-09-07T11:27:34.772Z,49.20
2022-09-07T11:30:21.254Z,49.50
2022-09-07T11:33:23.039Z,49.50
2022-09-07T11:36:09.846Z,49.40
2022-09-07T11:39:07.588Z,49.40
2022-09-07T11:41:36.590Z,49.20
2022-09-07T11:44:32.501Z,49.10
2022-09-07T11:47:08.531Z,49.20
2022-09-07T11:49:35.213Z,49.20
2022-09-07T11:52:20.580Z,48.90
2022-09-07T11:54:51.393Z,49.10
2022-09-07T11:57:45.877Z,49.10
2022-09-07T12:00:27.456Z,49.40
2022-09-07T12:03:22.789Z,49.00
2022-09-07T12:06:14.455Z,48.70
2022-09-07T12:08:56.425Z,48.30
2022-09-07T12:11:41.311Z,47.40
2022-09-07T12:14:13.774Z,47.60
2022-09-07T12:17:20.133Z,46.90
2022-09-07T12:20:03.647Z,46.40
2022-09-07T12:22:30.401Z,45.20
2022-09-07T12:25:06.411Z,45.40
2022-09-07T12:27:33.015Z,45.80
2022-09-07T12:30:05.958Z,45.60
2022-09-07T12:32:56.897Z,46.40
2022-09-07T12:35:30.906Z,45.50
2022-09-07T12:37:59.129Z,44.40
2022-09-07T12:40:28.943Z,44.10
2022-09-07T12:43:13.945Z,44.70
2022-09-07T12:45:40.602Z,44.20
2022-09-07T12:48:15.890Z,44.20
2022-09-07T12:51:59.017Z,43.10
2022-09-07T12:54:19.215Z,42.00
2022-09-07T13:00:14.768Z,42.60
2022-09-07T13:02:56.843Z,41.80
2022-09-07T13:05:29.015Z,42.00
2022-09-07T13:08:17.335Z,41.30
2022-09-07T13:10:44.599Z,41.60
2022-09-07T13:14:02.731Z,40.90
2022-09-07T13:16:06.772Z,40.30
2022-09-07T13:18:36.193Z,40.90
2022-09-07T13:21:09.098Z,40.30
2022-09-07T13:23:43.698Z,40.40
2022-09-07T13:26:13.150Z,39.80
2022-09-07T13:28:49.101Z,40.10
2022-09-07T13:31:24.983Z,40.70
2022-09-07T13:33:53.321Z,41.00
2022-09-07T13:36:21.854Z,41.50
2022-09-07T13:38:50.261Z,41.60
2022-09-07T13:41:21.240Z,41.90
2022-09-07T13:43:49.435Z,42.10
2022-09-07T13:46:34.870Z,42.70
2022-09-07T13:49:12.218Z,43.50
2022-09-07T13:51:48.738Z,43.50
2022-09-07T13:54:39.547Z,43.40
2022-09-07T13:57:25.748Z,43.80
2022-09-07T13:59:52.588Z,43.90
2022-09-07T14:02:26.823Z,43.90
2022-09-07T14:04:56.301Z,44.00
2022-09-07T14:07:25.223Z,44.20
2022-09-07T14:10:25.204Z,44.30
2022-09-07T14:13:15.506Z,44.50
2022-09-07T14:15:49.734Z,44.90
2022-09-07T14:18:31.117Z,44.20
2022-09-07T14:20:58.645Z,43.20
2022-09-07T14:23:30.918Z,42.70
2022-09-07T14:26:16.931Z,43.20
2022-09-07T14:28:48.308Z,43.10
2022-09-07T14:31:17.866Z,42.90
2022-09-07T14:33:53.189Z,42.80
2022-09-07T14:36:45.424Z,42.40
2022-09-07T14:39:17.432Z,42.50
2022-09-07T14:41:44.753Z,43.00
2022-09-07T14:44:27.692Z,42.70
2022-09-07T14:46:56.762Z,41.90
2022-09-07T14:49:23.859Z,41.60
2022-09-07T14:51:53.055Z,41.20
2022-09-07T14:54:37.848Z,40.80
2022-09-07T14:57:11.615Z,41.30
2022-09-07T14:59:43.901Z,41.40
2022-09-07T15:02:19.744Z,41.80
2022-09-07T15:04:48.195Z,41.90
2022-09-07T15:07:38.591Z,42.40
2022-09-07T15:10:20.833Z,42.50
2022-09-07T15:12:55.260Z,42.10
2022-09-07T15:15:26.306Z,41.80
2022-09-07T15:17:55.388Z,41.70
2022-09-07T15:20:31.205Z,41.80
2022-09-07T15:22:58.580Z,41.60
2022-09-07T15:25:25.396Z,41.10
2022-09-07T15:27:53.417Z,41.30
2022-09-07T15:30:20.203Z,41.10
2022-09-07T15:32:46.810Z,41.00
2022-09-07T15:35:13.595Z,41.30
2022-09-07T15:40:38.396Z,41.30
2022-09-07T15:43:16.801Z,41.50
2022-09-07T15:45:48.042Z,41.80
2022-09-07T15:48:16.885Z,42.10
2022-09-07T15:50:43.601Z,42.10
2022-09-07T15:54:07.460Z,42.50
2022-09-07T15:55:56.867Z,42.70
2022-09-07T15:58:23.700Z,43.00
2022-09-07T16:01:51.509Z,43.10
2022-09-07T16:03:38.057Z,43.10
2022-09-07T16:06:13.923Z,43.10
2022-09-07T16:08:41.019Z,43.10
2022-09-07T16:11:25.732Z,43.10
2022-09-07T16:14:01.343Z,43.20
2022-09-07T16:19:20.537Z,43.40
2022-09-07T16:21:47.643Z,43.00
2022-09-07T16:24:14.420Z,43.00
2022-09-07T16:26:41.099Z,42.30
2022-09-07T16:29:07.898Z,42.30
2022-09-07T16:31:35.351Z,41.90
2022-09-07T16:34:03.346Z,41.60
2022-09-07T16:36:30.647Z,41.80
2022-09-07T16:38:59.875Z,42.00
2022-09-07T16:41:31.275Z,41.70
2022-09-07T16:43:58.669Z,41.60
2022-09-07T16:46:28.494Z,41.60
2022-09-07T16:48:55.277Z,41.80
2022-09-07T16:51:23.575Z,41.80
2022-09-07T16:53:51.864Z,41.90
2022-09-07T16:56:20.453Z,41.90
2022-09-07T16:58:50.204Z,42.10
2022-09-07T17:01:19.338Z,42.20
2022-09-07T17:03:46.724Z,42.40
2022-09-07T17:06:14.579Z,42.30
2022-09-07T17:08:42.027Z,42.70
2022-09-07T17:11:17.653Z,42.70
2022-09-07T17:13:45.470Z,42.90
2022-09-07T17:16:19.868Z,42.90
2022-09-07T17:21:39.436Z,43.20
2022-09-07T17:24:07.730Z,43.10
2022-09-07T17:26:34.870Z,43.00
2022-09-07T17:29:03.270Z,42.90
2022-09-07T17:34:21.906Z,42.90
2022-09-07T17:36:48.577Z,42.70
2022-09-07T17:39:17.683Z,42.80
2022-09-07T17:41:45.864Z,42.80
2022-09-07T17:44:12.676Z,42.70
2022-09-07T17:46:39.493Z,42.60
2022-09-07T17:49:12.027Z,42.30
2022-09-07T17:51:38.707Z,42.00
2022-09-07T17:54:11.405Z,42.00
2022-09-07T17:56:39.906Z,42.00
2022-09-07T18:01:55.256Z,41.80
2022-09-07T18:04:23.050Z,41.80
2022-09-07T18:06:49.986Z,42.10
2022-09-07T18:09:16.702Z,42.20
2022-09-07T18:11:48.087Z,42.20
2022-09-07T18:14:16.447Z,42.30
2022-09-07T18:16:44.974Z,42.30
2022-09-07T18:19:12.814Z,42.90
2022-09-07T18:21:41.853Z,42.40
2022-09-07T18:24:17.000Z,42.40
2022-09-07T18:26:50.258Z,42.50
2022-09-07T18:29:28.739Z,42.60
2022-09-07T18:31:56.720Z,42.70
2022-09-07T18:34:23.457Z,42.70
2022-09-07T18:36:50.565Z,42.80
2022-09-07T18:39:17.214Z,42.90
2022-09-07T18:41:43.922Z,43.00
2022-09-07T18:46:57.248Z,43.20
2022-09-07T18:49:24.996Z,43.40
2022-09-07T18:54:39.610Z,43.70
2022-09-07T18:57:07.053Z,43.70
2022-09-07T18:59:34.001Z,43.90
2022-09-07T19:02:04.443Z,44.00
2022-09-07T19:07:20.895Z,44.10
2022-09-07T19:09:51.031Z,44.10
2022-09-07T19:12:17.637Z,44.10
2022-09-07T19:14:44.304Z,44.40
2022-09-07T19:17:11.752Z,44.80
2022-09-07T19:19:39.384Z,44.80
2022-09-07T19:22:06.163Z,44.70
2022-09-07T19:24:33.259Z,44.60
2022-09-07T19:27:00.806Z,44.60
2022-09-07T19:29:28.018Z,44.60
2022-09-07T19:32:07.652Z,44.50
2022-09-07T19:34:42.616Z,44.50
2022-09-07T19:37:11.722Z,44.70
2022-09-07T19:39:38.459Z,44.90
2022-09-07T19:42:06.311Z,45.10
2022-09-07T19:44:33.373Z,45.20
2022-09-07T19:47:00.768Z,45.40
2022-09-07T19:49:28.459Z,45.50
2022-09-07T19:51:55.411Z,45.60
2022-09-07T19:54:22.284Z,45.80
2022-09-07T19:56:49.122Z,46.70
2022-09-07T19:59:15.987Z,46.00
2022-09-07T20:01:46.085Z,46.40
2022-09-07T20:04:19.495Z,46.30
2022-09-07T20:06:49.499Z,46.30
2022-09-07T20:09:16.871Z,46.40
2022-09-07T20:11:46.500Z,46.30
2022-09-07T20:14:14.654Z,46.30
2022-09-07T20:16:41.697Z,46.30
2022-09-07T20:19:10.667Z,46.70
2022-09-07T20:21:37.282Z,47.40
2022-09-07T20:24:04.567Z,47.60
2022-09-07T20:26:32.266Z,47.60
2022-09-07T20:29:16.782Z,48.70
2022-09-07T20:31:46.482Z,48.20
2022-09-07T20:34:13.256Z,48.40
2022-09-07T20:36:40.031Z,48.60
2022-09-07T20:39:06.679Z,48.70
2022-09-07T20:41:34.161Z,49.10
2022-09-07T20:44:02.931Z,49.40
2022-09-07T20:46:30.814Z,49.30
2022-09-07T20:48:57.913Z,49.60
2022-09-07T20:51:24.567Z,50.70
2022-09-07T20:53:51.428Z,50.40
2022-09-07T20:56:20.417Z,49.70
2022-09-07T20:58:48.357Z,49.50
2022-09-07T21:01:17.910Z,50.10
2022-09-07T21:03:50.155Z,50.00
2022-09-07T21:06:17.891Z,50.20
2022-09-07T21:08:45.717Z,50.30
2022-09-07T21:11:17.734Z,51.30
2022-09-07T21:13:44.347Z,51.90
2022-09-07T21:16:13.156Z,51.80
2022-09-07T21:18:42.317Z,52.10
2022-09-07T21:21:24.178Z,51.50
2022-09-07T21:23:59.163Z,51.70
2022-09-07T21:26:27.119Z,50.90
2022-09-07T21:28:55.384Z,51.10
2022-09-07T21:31:22.122Z,52.40
2022-09-07T21:33:48.886Z,52.90
2022-09-07T21:36:15.459Z,52.60
2022-09-07T21:38:42.115Z,51.70
2022-09-07T21:41:11.563Z,51.60
2022-09-07T21:43:38.682Z,51.00
2022-09-07T21:46:10.293Z,51.10
2022-09-07T21:48:37.167Z,50.50
2022-09-07T21:51:04.741Z,50.20
2022-09-07T21:53:31.821Z,50.30
2022-09-07T21:56:04.870Z,50.50
2022-09-07T21:58:32.616Z,50.80
2022-09-07T22:01:03.224Z,51.30
2022-09-07T22:03:29.922Z,51.70
2022-09-07T22:05:56.512Z,52.40
2022-09-07T22:08:23.105Z,53.90
2022-09-07T22:10:50.257Z,55.40
2022-09-07T22:13:16.876Z,55.40
2022-09-07T22:15:43.567Z,55.70
2022-09-07T22:18:12.335Z,55.80
2022-09-07T22:20:39.496Z,55.40
2022-09-07T22:23:06.221Z,54.60
2022-09-07T22:25:33.594Z,53.90
2022-09-07T22:28:00.285Z,54.80
2022-09-07T22:30:27.138Z,54.00
2022-09-07T22:32:53.881Z,54.90
2022-09-07T22:35:21.447Z,54.90
2022-09-07T22:37:48.140Z,53.80
2022-09-07T22:40:15.007Z,53.10
2022-09-07T22:42:42.143Z,52.80
2022-09-07T22:45:09.830Z,52.90
2022-09-07T22:47:36.666Z,52.60
2022-09-07T22:50:03.424Z,52.40
2022-09-07T22:52:30.176Z,52.20
2022-09-07T22:54:56.778Z,52.50
2022-09-07T22:57:23.382Z,54.40
2022-09-07T22:59:50.050Z,55.00
2022-09-07T23:02:16.639Z,54.00
2022-09-07T23:04:43.384Z,53.10
2022-09-07T23:07:10.467Z,52.60
2022-09-07T23:09:37.113Z,52.40
2022-09-07T23:12:04.336Z,52.30
2022-09-07T23:14:30.965Z,52.00
2022-09-07T23:16:58.576Z,51.90
2022-09-07T23:19:25.321Z,52.10
2022-09-07T23:21:51.999Z,53.40
2022-09-07T23:24:19.362Z,54.50
2022-09-07T23:26:49.224Z,55.80
2022-09-07T23:29:16.135Z,54.30
2022-09-07T23:31:45.109Z,54.20
2022-09-07T23:34:11.873Z,55.70
2022-09-07T23:36:38.788Z,56.40
2022-09-07T23:39:05.672Z,55.50
2022-09-07T23:41:32.850Z,56.20
2022-09-07T23:43:59.750Z,57.20
2022-09-07T23:46:26.582Z,57.40
2022-09-07T23:48:53.553Z,55.90
2022-09-07T23:51:24.316Z,55.10
2022-09-07T23:53:52.603Z,54.60
2022-09-07T23:56:19.952Z,54.10
2022-09-07T23:58:46.665Z,54.00
